createdAt,value
2018-03-07T00:01:30.756Z,31.97
2018-03-07T00:03:58.320Z,33.90
2018-03-07T00:06:25.848Z,30.00
2018-03-07T00:08:53.401Z,32.23
2018-03-07T00:11:20.908Z,35.77
2018-03-07T00:13:48.421Z,31.37
2018-03-07T00:16:15.993Z,33.27
2018-03-07T00:18:44.272Z,35.83
2018-03-07T00:21:12.601Z,35.80
2018-03-07T00:23:40.138Z,38.70
2018-03-07T00:26:08.460Z,39.70
2018-03-07T00:28:36.005Z,40.77
2018-03-07T00:31:05.753Z,41.47
2018-03-07T00:33:33.313Z,37.47
2018-03-07T00:36:00.824Z,45.20
2018-03-07T00:38:28.360Z,43.40
2018-03-07T00:40:55.920Z,37.13
2018-03-07T00:43:23.486Z,36.57
2018-03-07T00:45:51.760Z,40.70
2018-03-07T00:48:20.036Z,39.93
2018-03-07T00:50:48.440Z,41.87
2018-03-07T00:53:16.712Z,47.20
2018-03-07T00:55:44.248Z,49.93
2018-03-07T00:58:11.785Z,45.13
2018-03-07T01:00:39.353Z,36.30
2018-03-07T01:03:07.660Z,34.90
2018-03-07T01:05:35.200Z,46.17
2018-03-07T01:08:03.498Z,48.50
2018-03-07T01:10:31.808Z,43.73
2018-03-07T01:12:59.367Z,43.53
2018-03-07T01:15:26.904Z,39.13
2018-03-07T01:17:54.468Z,40.80
2018-03-07T01:20:21.976Z,33.23
2018-03-07T01:22:49.520Z,41.53
2018-03-07T01:25:17.053Z,41.03
2018-03-07T01:27:44.564Z,47.23
2018-03-07T01:30:12.125Z,41.80
2018-03-07T01:32:39.636Z,47.63
2018-03-07T01:35:07.168Z,46.83
2018-03-07T01:37:34.689Z,44.40
2018-03-07T01:40:02.200Z,44.93
2018-03-07T01:42:29.731Z,41.03
2018-03-07T01:44:57.235Z,33.97
2018-03-07T01:47:24.767Z,35.53
2018-03-07T01:49:52.280Z,40.87
2018-03-07T01:52:19.816Z,45.73
2018-03-07T01:54:47.327Z,28.77
2018-03-07T01:57:14.939Z,30.00
2018-03-07T01:59:42.456Z,42.33
2018-03-07T02:02:09.999Z,44.03
2018-03-07T02:04:37.532Z,38.93
2018-03-07T02:07:05.840Z,49.17
2018-03-07T02:09:33.375Z,52.17
2018-03-07T02:12:00.887Z,52.07
2018-03-07T02:14:28.911Z,54.13
2018-03-07T02:16:56.452Z,54.23
2018-03-07T02:19:23.988Z,43.33
2018-03-07T02:21:52.292Z,44.13
2018-03-07T02:24:19.799Z,45.80
2018-03-07T02:26:47.368Z,50.47
2018-03-07T02:29:14.884Z,52.13
2018-03-07T02:31:43.212Z,50.77
2018-03-07T02:34:10.726Z,49.30
2018-03-07T02:36:38.239Z,46.43
2018-03-07T02:39:05.790Z,48.97
2018-03-07T02:41:34.176Z,53.17
2018-03-07T02:44:03.199Z,46.37
2018-03-07T02:46:30.708Z,50.13
2018-03-07T02:48:58.308Z,48.70
2018-03-07T02:51:25.820Z,42.60
2018-03-07T02:53:53.352Z,47.00
2018-03-07T02:56:20.895Z,41.17
2018-03-07T02:58:48.420Z,41.73
2018-03-07T03:01:15.957Z,44.47
2018-03-07T03:03:43.468Z,39.10
2018-03-07T03:06:11.009Z,39.87
2018-03-07T03:08:39.315Z,37.67
2018-03-07T03:11:06.856Z,41.10
2018-03-07T03:13:34.423Z,47.20
2018-03-07T03:16:01.933Z,47.23
2018-03-07T03:18:29.463Z,47.93
2018-03-07T03:20:56.972Z,39.60
2018-03-07T03:23:24.532Z,259.17
2018-03-07T03:25:52.807Z,38.20
2018-03-07T03:28:20.350Z,141.27
2018-03-07T03:30:47.929Z,54.40
2018-03-07T03:33:15.452Z,45.60
2018-03-07T03:35:42.994Z,44.90
2018-03-07T03:38:11.268Z,46.33
2018-03-07T03:40:38.799Z,28.63
2018-03-07T03:43:06.311Z,50.30
2018-03-07T03:45:33.848Z,47.17
2018-03-07T03:48:01.368Z,47.80
2018-03-07T03:50:29.697Z,43.47
2018-03-07T03:52:57.220Z,46.40
2018-03-07T03:55:25.496Z,47.50
2018-03-07T03:57:53.055Z,41.50
2018-03-07T04:00:20.597Z,33.93
2018-03-07T04:02:48.164Z,41.27
2018-03-07T04:05:15.672Z,45.70
2018-03-07T04:07:43.200Z,45.67
2018-03-07T04:10:10.736Z,48.33
2018-03-07T04:12:39.032Z,35.23
2018-03-07T04:15:07.307Z,44.67
2018-03-07T04:17:34.879Z,62.43
2018-03-07T04:20:03.184Z,55.57
2018-03-07T04:22:31.490Z,47.70
2018-03-07T04:24:59.020Z,67.80
2018-03-07T04:27:26.586Z,72.97
2018-03-07T04:29:54.120Z,75.87
2018-03-07T04:32:21.660Z,67.33
2018-03-07T04:34:49.219Z,73.80
2018-03-07T04:37:17.531Z,63.20
2018-03-07T04:39:45.063Z,61.20
2018-03-07T04:42:12.568Z,64.10
2018-03-07T04:44:40.795Z,64.70
2018-03-07T04:47:08.323Z,56.40
2018-03-07T04:49:35.932Z,52.90
2018-03-07T04:52:03.488Z,53.90
2018-03-07T04:54:31.048Z,52.30
2018-03-07T04:56:58.582Z,46.77
2018-03-07T04:59:26.087Z,49.83
2018-03-07T05:01:53.623Z,50.47
2018-03-07T05:04:21.900Z,46.63
2018-03-07T05:06:49.444Z,45.20
2018-03-07T05:09:17.016Z,44.53
2018-03-07T05:11:44.552Z,47.53
2018-03-07T05:14:12.132Z,47.60
2018-03-07T05:16:39.680Z,49.73
2018-03-07T05:19:08.008Z,49.57
2018-03-07T05:21:35.591Z,50.83
2018-03-07T05:24:03.219Z,50.33
2018-03-07T05:26:31.496Z,51.57
2018-03-07T05:28:59.808Z,47.67
2018-03-07T05:31:27.356Z,48.37
2018-03-07T05:33:55.632Z,50.03
2018-03-07T05:36:23.164Z,51.90
2018-03-07T05:38:50.676Z,48.37
2018-03-07T05:41:18.232Z,53.43
2018-03-07T05:43:45.768Z,58.73
2018-03-07T05:46:13.332Z,55.37
2018-03-07T05:48:40.848Z,57.33
2018-03-07T05:51:08.357Z,49.87
2018-03-07T05:53:35.929Z,55.53
2018-03-07T05:56:03.446Z,64.57
2018-03-07T05:58:31.012Z,71.47
2018-03-07T06:00:59.287Z,69.13
2018-03-07T06:03:26.819Z,70.30
2018-03-07T06:05:55.104Z,69.27
2018-03-07T06:08:23.405Z,67.50
2018-03-07T06:10:50.920Z,72.60
2018-03-07T06:13:18.460Z,63.97
2018-03-07T06:15:46.007Z,65.77
2018-03-07T06:18:14.280Z,64.40
2018-03-07T06:20:42.576Z,64.60
2018-03-07T06:23:10.852Z,60.93
2018-03-07T06:25:39.184Z,63.10
2018-03-07T06:28:06.695Z,54.83
2018-03-07T06:30:34.245Z,55.87
2018-03-07T06:33:01.820Z,60.37
2018-03-07T06:35:29.359Z,57.87
2018-03-07T06:37:56.928Z,56.70
2018-03-07T06:40:24.440Z,53.03
2018-03-07T06:42:51.980Z,55.20
2018-03-07T06:45:19.507Z,53.60
2018-03-07T06:47:47.432Z,52.97
2018-03-07T06:50:14.994Z,47.53
2018-03-07T06:52:42.975Z,48.80
2018-03-07T06:55:10.572Z,42.07
2018-03-07T06:57:38.079Z,41.77
2018-03-07T07:00:06.430Z,38.40
2018-03-07T07:02:33.999Z,36.07
2018-03-07T07:05:01.532Z,36.37
2018-03-07T07:07:29.091Z,33.83
2018-03-07T07:09:57.367Z,29.13
2018-03-07T07:12:24.956Z,30.43
2018-03-07T07:14:53.267Z,30.53
2018-03-07T07:17:20.795Z,30.27
2018-03-07T07:19:48.334Z,29.13
2018-03-07T07:22:15.868Z,28.70
2018-03-07T08:41:13.052Z,16.73
2018-03-07T08:43:40.624Z,16.73
2018-03-07T08:46:08.168Z,16.77
2018-03-07T08:48:36.504Z,16.87
2018-03-07T08:51:04.029Z,16.87
2018-03-07T08:53:31.568Z,17.17
2018-03-07T08:55:59.112Z,16.67
2018-03-07T08:58:26.658Z,17.47
2018-03-07T09:00:54.945Z,44.07
2018-03-07T09:03:24.220Z,19.90
2018-03-07T09:05:51.784Z,18.57
2018-03-07T09:08:19.319Z,18.33
2018-03-07T09:10:46.902Z,21.20
2018-03-07T09:13:14.777Z,18.67
2018-03-07T09:15:42.313Z,29.63
2018-03-07T09:18:10.627Z,38.23
2018-03-07T09:20:38.148Z,17.80
2018-03-07T09:23:05.694Z,18.73
2018-03-07T09:25:33.237Z,83.73
2018-03-07T09:28:00.801Z,33.83
2018-03-07T09:30:28.337Z,33.43
2018-03-07T09:32:55.917Z,20.90
2018-03-07T09:35:23.670Z,20.97
2018-03-07T09:37:51.181Z,20.63
2018-03-07T09:40:19.480Z,21.37
2018-03-07T09:42:47.024Z,21.23
2018-03-07T09:45:14.585Z,21.27
2018-03-07T09:47:42.156Z,18.37
2018-03-07T09:50:09.744Z,19.13
2018-03-07T09:52:38.057Z,18.03
2018-03-07T09:55:05.571Z,18.13
2018-03-07T09:57:33.136Z,22.33
2018-03-07T10:00:01.416Z,18.30
2018-03-07T10:02:29.335Z,20.17
2018-03-07T10:04:56.937Z,19.37
2018-03-07T10:07:24.528Z,19.57
2018-03-07T10:09:52.068Z,22.10
2018-03-07T10:12:20.349Z,20.20
2018-03-07T10:14:48.644Z,21.27
2018-03-07T10:17:16.932Z,22.40
2018-03-07T10:19:45.260Z,20.77
2018-03-07T10:22:12.776Z,21.60
2018-03-07T10:24:41.084Z,20.57
2018-03-07T10:27:09.484Z,20.10
2018-03-07T10:29:37.000Z,20.17
2018-03-07T10:32:04.536Z,24.30
2018-03-07T10:34:32.508Z,26.03
2018-03-07T10:37:00.048Z,22.30
2018-03-07T10:39:28.333Z,23.00
2018-03-07T10:41:56.640Z,22.03
2018-03-07T10:44:24.927Z,23.20
2018-03-07T10:46:53.200Z,23.10
2018-03-07T10:49:20.735Z,24.70
2018-03-07T10:51:48.251Z,25.03
2018-03-07T10:54:17.290Z,24.63
2018-03-07T10:56:44.800Z,25.27
2018-03-07T10:59:12.340Z,29.13
2018-03-07T11:01:39.848Z,42.50
2018-03-07T11:04:07.366Z,30.20
2018-03-07T11:06:34.895Z,29.67
2018-03-07T11:09:02.413Z,72.83
2018-03-07T11:11:29.944Z,31.30
2018-03-07T11:13:58.243Z,32.07
2018-03-07T11:16:25.805Z,195.17
2018-03-07T11:18:54.085Z,36.47
2018-03-07T11:21:21.600Z,39.70
2018-03-07T11:23:49.145Z,45.67
2018-03-07T11:26:17.433Z,30.57
2018-03-07T11:28:44.976Z,31.10
2018-03-07T11:31:12.489Z,23.83
2018-03-07T11:33:40.056Z,21.07
2018-03-07T11:36:07.573Z,21.73
2018-03-07T11:38:35.159Z,23.37
2018-03-07T11:41:03.482Z,24.07
2018-03-07T11:43:31.013Z,24.03
2018-03-07T11:46:05.137Z,21.73
2018-03-07T11:48:32.653Z,19.93
2018-03-07T11:51:01.261Z,17.47
2018-03-07T11:53:29.542Z,20.17
2018-03-07T11:55:57.838Z,21.37
2018-03-07T11:58:26.138Z,19.90
2018-03-07T12:00:53.657Z,19.40
2018-03-07T12:03:21.197Z,18.77
2018-03-07T12:05:48.708Z,30.93
2018-03-07T12:08:16.252Z,18.60
2018-03-07T12:10:43.762Z,19.03
2018-03-07T12:13:11.292Z,18.67
2018-03-07T12:15:38.821Z,17.87
2018-03-07T12:18:07.101Z,19.97
2018-03-07T12:20:36.008Z,19.07
2018-03-07T12:23:03.520Z,18.13
2018-03-07T12:25:31.312Z,22.10
2018-03-07T12:27:58.826Z,20.60
2018-03-07T12:30:27.099Z,22.10
2018-03-07T12:32:54.661Z,23.30
2018-03-07T12:35:22.160Z,21.77
2018-03-07T12:37:49.709Z,21.80
2018-03-07T12:40:17.227Z,21.83
2018-03-07T12:42:45.094Z,18.87
2018-03-07T12:45:12.608Z,19.70
2018-03-07T12:47:40.149Z,32.03
2018-03-07T12:50:07.687Z,48.53
2018-03-07T12:52:35.964Z,15.63
2018-03-07T12:55:04.264Z,27.43
2018-03-07T12:57:32.545Z,14.73
2018-03-07T13:00:00.844Z,16.63
2018-03-07T13:02:28.356Z,13.10
2018-03-07T13:04:55.870Z,17.03
2018-03-07T13:07:24.212Z,15.63
2018-03-07T13:09:51.725Z,13.90
2018-03-07T13:12:19.253Z,13.67
2018-03-07T13:14:46.768Z,12.47
2018-03-07T13:17:14.345Z,12.30
2018-03-07T13:19:42.621Z,11.47
2018-03-07T13:22:10.137Z,10.70
2018-03-07T13:24:37.673Z,11.47
2018-03-07T13:27:05.952Z,12.33
2018-03-07T13:29:34.261Z,10.30
2018-03-07T13:32:01.779Z,10.55
2018-03-07T13:34:29.329Z,8.67
2018-03-07T13:36:56.837Z,8.10
2018-03-07T13:39:24.352Z,8.23
2018-03-07T13:41:51.904Z,7.50
2018-03-07T13:44:20.173Z,7.00
2018-03-07T13:46:47.696Z,6.37
2018-03-07T13:49:15.196Z,7.40
2018-03-07T13:51:42.720Z,7.43
2018-03-07T13:54:10.241Z,7.00
2018-03-07T13:56:37.748Z,6.43
2018-03-07T13:59:06.044Z,7.00
2018-03-07T14:01:33.545Z,6.80
2018-03-07T14:04:01.524Z,6.67
2018-03-07T14:06:29.036Z,7.43
2018-03-07T14:08:56.573Z,6.77
2018-03-07T14:11:24.076Z,6.30
2018-03-07T14:13:51.580Z,7.13
2018-03-07T14:16:19.112Z,6.20
2018-03-07T14:18:46.616Z,6.70
2018-03-07T14:21:14.140Z,5.63
2018-03-07T14:23:41.640Z,5.57
2018-03-07T14:26:10.201Z,4.90
2018-03-07T14:28:37.712Z,4.70
2018-03-07T14:31:05.220Z,5.23
2018-03-07T14:33:32.743Z,5.00
2018-03-07T14:36:01.016Z,5.83
2018-03-07T14:38:28.543Z,5.83
2018-03-07T14:40:56.040Z,4.70
2018-03-07T14:43:23.568Z,6.23
2018-03-07T14:45:51.076Z,5.50
2018-03-07T14:48:19.241Z,4.60
2018-03-07T14:50:46.776Z,4.70
2018-03-07T14:53:15.048Z,4.90
2018-03-07T14:55:42.575Z,4.67
2018-03-07T14:58:10.084Z,4.13
2018-03-07T15:00:37.886Z,4.97
2018-03-07T15:03:05.399Z,4.63
2018-03-07T15:05:32.905Z,4.60
2018-03-07T15:08:00.436Z,5.33
2018-03-07T15:10:27.940Z,4.13
2018-03-07T15:12:55.468Z,4.30
2018-03-07T15:15:22.976Z,4.13
2018-03-07T15:17:50.508Z,4.37
2018-03-07T15:20:18.012Z,4.23
2018-03-07T15:22:45.523Z,4.27
2018-03-07T15:25:13.052Z,3.90
2018-03-07T15:27:40.556Z,4.87
2018-03-07T15:30:08.851Z,5.30
2018-03-07T15:32:36.355Z,3.90
2018-03-07T15:35:03.913Z,3.53
2018-03-07T15:37:31.408Z,3.60
2018-03-07T15:39:58.946Z,3.33
2018-03-07T15:42:26.473Z,3.50
2018-03-07T15:44:53.985Z,3.67
2018-03-07T15:47:21.508Z,4.13
2018-03-07T15:49:49.013Z,3.20
2018-03-07T15:52:16.572Z,3.20
2018-03-07T15:54:44.123Z,3.47
2018-03-07T15:57:11.696Z,3.47
2018-03-07T15:59:39.301Z,3.63
2018-03-07T16:02:06.829Z,3.10
2018-03-07T16:04:34.360Z,2.97
2018-03-07T16:07:01.860Z,3.33
2018-03-07T16:09:30.161Z,3.30
2018-03-07T16:11:57.700Z,3.47
2018-03-07T16:14:25.204Z,3.30
2018-03-07T16:16:52.752Z,2.60
2018-03-07T16:19:21.033Z,3.30
2018-03-07T16:21:48.541Z,3.33
2018-03-07T16:24:16.063Z,3.17
2018-03-07T16:26:43.559Z,2.70
2018-03-07T16:29:11.883Z,2.60
2018-03-07T16:31:39.384Z,2.97
2018-03-07T16:34:06.947Z,3.20
2018-03-07T16:36:34.436Z,3.63
2018-03-07T16:39:01.940Z,3.47
2018-03-07T16:41:29.833Z,3.27
2018-03-07T16:43:57.371Z,3.33
2018-03-07T16:46:25.648Z,2.80
2018-03-07T16:48:53.175Z,2.83
2018-03-07T16:51:20.700Z,2.40
2018-03-07T16:53:49.318Z,2.80
2018-03-07T16:56:16.864Z,2.90
2018-03-07T16:58:44.355Z,2.80
2018-03-07T17:01:11.889Z,2.77
2018-03-07T17:03:40.172Z,2.90
2018-03-07T17:06:07.992Z,3.17
2018-03-07T17:08:35.507Z,5.60
2018-03-07T17:11:03.048Z,2.93
2018-03-07T17:13:30.556Z,3.27
2018-03-07T17:15:58.068Z,3.07
2018-03-07T17:18:26.371Z,3.40
2018-03-07T17:20:53.876Z,3.30
2018-03-07T17:23:21.376Z,3.27
2018-03-07T17:25:49.673Z,3.50
2018-03-07T17:28:17.945Z,3.40
2018-03-07T17:30:45.475Z,3.27
2018-03-07T17:33:12.976Z,3.73
2018-03-07T17:35:40.476Z,3.50
2018-03-07T17:38:08.777Z,4.20
2018-03-07T17:40:36.284Z,4.60
2018-03-07T17:43:03.789Z,4.30
2018-03-07T17:45:31.322Z,4.60
2018-03-07T17:47:59.496Z,5.47
2018-03-07T17:50:27.003Z,4.80
2018-03-07T17:52:54.572Z,4.40
2018-03-07T17:55:22.076Z,4.30
2018-03-07T17:57:49.612Z,5.23
2018-03-07T18:00:17.120Z,3.83
2018-03-07T18:02:44.624Z,3.53
2018-03-07T18:05:12.168Z,5.00
2018-03-07T18:07:39.676Z,5.07
2018-03-07T18:10:07.210Z,5.63
2018-03-07T18:12:36.253Z,9.30
2018-03-07T18:15:04.553Z,9.30
2018-03-07T18:17:32.107Z,10.60
2018-03-07T18:19:59.611Z,9.83
2018-03-07T18:22:27.144Z,11.47
2018-03-07T18:24:54.652Z,12.17
2018-03-07T18:27:22.155Z,9.50
2018-03-07T18:29:49.689Z,12.03
2018-03-07T18:32:17.197Z,11.13
2018-03-07T18:34:44.731Z,11.27
2018-03-07T18:37:12.240Z,10.70
2018-03-07T18:39:39.767Z,11.83
2018-03-07T18:42:07.291Z,10.73
2018-03-07T18:44:34.808Z,9.13
2018-03-07T18:47:02.352Z,10.20
2018-03-07T18:49:30.917Z,9.83
2018-03-07T18:52:00.130Z,9.50
2018-03-07T18:54:27.668Z,10.87
2018-03-07T18:56:55.944Z,9.63
2018-03-07T18:59:23.492Z,8.87
2018-03-07T19:01:51.012Z,12.07
2018-03-07T19:04:19.276Z,9.83
2018-03-07T19:06:46.808Z,11.07
2018-03-07T19:09:14.319Z,10.87
2018-03-07T19:11:41.858Z,9.47
2018-03-07T19:14:09.360Z,10.73
2018-03-07T19:16:36.879Z,9.80
2018-03-07T19:19:04.405Z,9.57
2018-03-07T19:21:32.676Z,10.53
2018-03-07T19:24:00.257Z,8.47
2018-03-07T19:26:27.736Z,8.87
2018-03-07T19:28:56.006Z,9.37
2018-03-07T19:31:23.528Z,9.03
2018-03-07T19:33:51.036Z,10.10
2018-03-07T19:36:18.563Z,9.17
2018-03-07T19:38:46.075Z,10.33
2018-03-07T19:41:13.584Z,12.17
2018-03-07T19:43:41.880Z,11.80
2018-03-07T19:46:09.404Z,14.07
2018-03-07T19:48:36.940Z,12.40
2018-03-07T19:51:04.508Z,12.23
2018-03-07T19:53:32.020Z,14.17
2018-03-07T19:55:59.553Z,14.67
2018-03-07T19:58:27.060Z,14.57
2018-03-07T20:00:54.852Z,15.37
2018-03-07T20:03:22.363Z,15.07
2018-03-07T20:05:49.872Z,15.47
2018-03-07T20:08:18.172Z,17.83
2018-03-07T20:10:45.684Z,16.20
2018-03-07T20:13:13.218Z,19.43
2018-03-07T20:15:41.195Z,14.63
2018-03-07T20:18:08.712Z,17.87
2018-03-07T20:20:36.245Z,17.20
2018-03-07T20:23:03.756Z,16.40
2018-03-07T20:25:31.288Z,18.37
2018-03-07T20:27:59.589Z,18.43
2018-03-07T20:30:27.878Z,20.67
2018-03-07T20:32:56.173Z,18.80
2018-03-07T20:35:24.449Z,20.63
2018-03-07T20:37:52.837Z,21.70
2018-03-07T20:40:21.120Z,23.00
2018-03-07T20:42:49.424Z,24.00
2018-03-07T20:45:17.709Z,26.63
2018-03-07T20:47:45.996Z,24.30
2018-03-07T20:50:14.296Z,23.43
2018-03-07T20:52:41.816Z,25.73
2018-03-07T20:55:09.343Z,27.97
2018-03-07T20:57:36.855Z,25.87
2018-03-07T21:00:04.692Z,28.40
2018-03-07T21:02:32.218Z,36.20
2018-03-07T21:04:59.731Z,35.03
2018-03-07T21:07:27.260Z,38.67
2018-03-07T21:09:54.769Z,32.43
2018-03-07T21:12:22.300Z,30.57
2018-03-07T21:14:49.813Z,21.63
2018-03-07T21:17:17.347Z,20.27
2018-03-07T21:19:44.866Z,17.77
2018-03-07T21:22:12.376Z,15.83
2018-03-07T21:24:39.904Z,12.03
2018-03-07T21:27:07.412Z,12.33
2018-03-07T21:29:34.940Z,10.10
2018-03-07T21:32:02.467Z,10.97
2018-03-07T21:34:30.017Z,10.37
2018-03-07T21:36:57.534Z,14.03
2018-03-07T21:39:25.816Z,11.67
2018-03-07T21:41:54.121Z,12.27
2018-03-07T21:44:21.645Z,12.80
2018-03-07T21:46:49.176Z,12.23
2018-03-07T21:49:16.684Z,14.23
2018-03-07T21:51:44.220Z,16.27
2018-03-07T21:54:11.744Z,15.57
2018-03-07T21:56:40.024Z,18.47
2018-03-07T21:59:07.557Z,17.73
2018-03-07T22:01:35.072Z,20.93
2018-03-07T22:04:02.613Z,21.50
2018-03-07T22:06:30.500Z,21.80
2018-03-07T22:08:58.039Z,30.03
2018-03-07T22:11:25.548Z,25.30
2018-03-07T22:13:53.061Z,29.53
2018-03-07T22:16:20.600Z,25.97
2018-03-07T22:18:48.112Z,34.73
2018-03-07T22:21:15.788Z,38.00
2018-03-07T22:23:43.304Z,38.20
2018-03-07T22:26:11.120Z,40.90
2018-03-07T22:28:38.633Z,47.20
2018-03-07T22:31:06.157Z,43.47
2018-03-07T22:33:33.689Z,42.83
2018-03-07T22:36:01.814Z,38.80
2018-03-07T22:38:29.344Z,45.03
2018-03-07T22:40:56.865Z,49.70
2018-03-07T22:43:24.652Z,50.23
2018-03-07T22:45:52.164Z,43.07
2018-03-07T22:48:19.674Z,45.67
2018-03-07T22:50:47.210Z,51.27
2018-03-07T22:53:14.729Z,48.50
2018-03-07T22:55:42.260Z,56.13
2018-03-07T22:58:10.540Z,53.17
2018-03-07T23:00:43.800Z,55.40
2018-03-07T23:03:11.307Z,54.77
2018-03-07T23:05:38.811Z,57.10
2018-03-07T23:08:06.354Z,59.07
2018-03-07T23:10:34.636Z,59.97
2018-03-07T23:13:02.181Z,65.90
2018-03-07T23:15:29.691Z,67.13
2018-03-07T23:17:57.199Z,69.47
2018-03-07T23:20:24.733Z,64.47
2018-03-07T23:22:53.019Z,62.07
2018-03-07T23:25:21.316Z,66.97
2018-03-07T23:27:49.595Z,66.87
2018-03-07T23:30:17.147Z,65.60
2018-03-07T23:32:44.655Z,67.53
2018-03-07T23:35:12.927Z,69.60
2018-03-07T23:37:40.456Z,76.60
2018-03-07T23:40:07.973Z,71.17
2018-03-07T23:42:36.268Z,65.73
2018-03-07T23:45:04.543Z,70.73
2018-03-07T23:47:32.828Z,74.83
2018-03-07T23:50:00.812Z,70.90
2018-03-07T23:52:29.094Z,77.50
2018-03-07T23:54:56.628Z,68.47
2018-03-07T23:57:24.139Z,76.27
2018-03-07T23:59:51.677Z,65.10
